Time;durP1;ratioP1;P1;durP2;ratioP2;P2;SDS_P1;SDS_P2;PMS_P1;PMS_P2;Temp;Humidity;BMP_temperature;BMP_pressure;BME280_temperature;BME280_humidity;BME280_pressure;Samples;Min_cycle;Max_cycle;Signal;HPM_P1;HPM_P2
2022/12/23 00:00:53;;;;;;;46.75;26.65;;;7.60;99.90;;;;;;4994025;28;20046;-35
2022/12/23 00:03:19;;;;;;;64.18;30.25;;;7.60;99.90;;;;;;5011102;28;20427;-36
2022/12/23 00:05:45;;;;;;;58.08;28.98;;;7.60;99.90;;;;;;5010588;28;20081;-35
2022/12/23 00:08:11;;;;;;;76.25;35.65;;;7.60;99.90;;;;;;5010916;28;20069;-35
2022/12/23 00:10:38;;;;;;;67.97;30.40;;;7.70;99.90;;;;;;4994194;28;20540;-36
2022/12/23 00:15:49;;;;;;;54.20;27.50;;;7.70;99.90;;;;;;5011798;28;20060;-36
2022/12/23 00:18:14;;;;;;;63.10;27.63;;;7.70;99.90;;;;;;5010619;28;20045;-36
2022/12/23 00:20:40;;;;;;;91.88;30.80;;;7.70;99.90;;;;;;5010722;28;20103;-36
2022/12/23 00:23:06;;;;;;;52.03;24.83;;;7.80;99.90;;;;;;5010683;28;20037;-36
2022/12/23 00:25:40;;;;;;;59.67;29.50;;;7.80;99.90;;;;;;5010527;28;20615;-35
2022/12/23 00:28:13;;;;;;;60.60;26.40;;;7.80;99.90;;;;;;5010906;28;20117;-35
2022/12/23 00:30:47;;;;;;;108.18;31.30;;;7.80;99.90;;;;;;4994703;28;20065;-36
2022/12/23 00:33:18;;;;;;;54.20;26.15;;;7.80;99.90;;;;;;5010429;28;20092;-36
2022/12/23 00:35:45;;;;;;;114.38;31.63;;;7.80;99.90;;;;;;5012614;28;20083;-36
2022/12/23 00:38:11;;;;;;;57.70;24.27;;;7.90;99.90;;;;;;5014280;28;20061;-35
2022/12/23 00:43:22;;;;;;;50.38;24.65;;;7.90;99.90;;;;;;5015000;28;20061;-36
2022/12/23 00:45:47;;;;;;;83.78;28.20;;;7.90;99.90;;;;;;5013779;28;20049;-35
2022/12/23 00:50:58;;;;;;;46.30;21.95;;;7.80;99.90;;;;;;5015288;28;20081;-35
2022/12/23 00:53:24;;;;;;;50.30;23.80;;;7.90;99.90;;;;;;5013938;28;20491;-36
2022/12/23 00:55:50;;;;;;;52.13;24.92;;;7.90;99.90;;;;;;5013562;28;20140;-36
2022/12/23 00:58:17;;;;;;;39.50;20.88;;;7.90;99.90;;;;;;5014020;28;20372;-36
2022/12/23 01:06:14;;;;;;;36.47;20.88;;;7.90;99.90;;;;;;5014643;28;20132;-35
2022/12/23 01:08:40;;;;;;;44.30;22.58;;;7.90;99.90;;;;;;5008610;28;20035;-36
2022/12/23 01:11:08;;;;;;;39.78;19.70;;;7.90;99.90;;;;;;4993690;28;20041;-36
2022/12/23 01:13:34;;;;;;;50.97;22.08;;;7.90;99.90;;;;;;4997076;28;20065;-36
2022/12/23 01:16:08;;;;;;;41.85;21.02;;;7.90;99.90;;;;;;5013316;28;20080;-36
2022/12/23 01:18:35;;;;;;;36.10;19.80;;;7.90;99.90;;;;;;5013380;28;20042;-36
2022/12/23 01:21:06;;;;;;;47.90;22.52;;;7.90;99.90;;;;;;5013414;28;20670;-36
2022/12/23 01:23:33;;;;;;;32.92;18.77;;;7.90;99.90;;;;;;5013177;28;20128;-36
2022/12/23 01:26:01;;;;;;;39.13;21.45;;;7.90;99.90;;;;;;5013029;28;20052;-36
2022/12/23 01:28:29;;;;;;;33.08;20.33;;;7.90;99.90;;;;;;5014476;28;20065;-35
2022/12/23 01:30:56;;;;;;;49.85;23.58;;;7.90;99.90;;;;;;5013253;28;20053;-35
2022/12/23 01:33:22;;;;;;;36.33;20.00;;;7.90;99.90;;;;;;5012839;28;20038;-35
2022/12/23 01:35:48;;;;;;;34.08;19.67;;;7.90;99.90;;;;;;5012920;28;20172;-36
2022/12/23 01:38:14;;;;;;;34.42;20.15;;;7.90;99.90;;;;;;5012811;28;20078;-36
2022/12/23 01:40:41;;;;;;;40.85;20.88;;;7.90;99.90;;;;;;5014236;28;20045;-36
2022/12/23 01:43:16;;;;;;;44.88;22.40;;;7.90;99.90;;;;;;5012720;28;20038;-36
2022/12/23 01:45:42;;;;;;;41.45;21.60;;;7.90;99.90;;;;;;5012720;28;20046;-35
2022/12/23 01:48:18;;;;;;;36.10;19.58;;;7.90;99.90;;;;;;5012339;28;20038;-35
2022/12/23 01:50:49;;;;;;;34.50;19.70;;;8.00;99.90;;;;;;4996545;28;20133;-36
2022/12/23 01:53:24;;;;;;;37.15;19.95;;;8.00;99.90;;;;;;5012978;28;20044;-36
2022/12/23 01:56:09;;;;;;;28.75;17.98;;;8.00;99.90;;;;;;5012523;28;20044;-36
2022/12/23 01:58:38;;;;;;;29.77;17.70;;;7.90;99.90;;;;;;5012932;28;20041;-36
2022/12/23 02:03:53;;;;;;;28.15;17.15;;;7.90;99.90;;;;;;5013938;28;20406;-36
2022/12/23 02:09:21;;;;;;;36.10;18.15;;;7.90;99.90;;;;;;5003017;28;20046;-36
2022/12/23 02:12:05;;;;;;;28.33;16.27;;;7.90;99.90;;;;;;5009383;28;20045;-36
2022/12/23 02:17:21;;;;;;;27.48;15.25;;;7.90;99.90;;;;;;5013618;28;19939;-35
2022/12/23 02:20:18;;;;;;;33.33;16.75;;;7.90;99.90;;;;;;5012311;28;20137;-35
2022/12/23 02:22:50;;;;;;;31.90;16.70;;;7.90;99.90;;;;;;5012023;28;20084;-36
2022/12/23 02:25:44;;;;;;;26.95;14.60;;;7.90;99.90;;;;;;5011993;28;20073;-36
2022/12/23 02:28:13;;;;;;;26.17;14.82;;;7.90;99.90;;;;;;5000792;28;20158;-35
2022/12/23 02:31:00;;;;;;;29.70;15.20;;;7.90;99.90;;;;;;4992592;28;20124;-36
2022/12/23 02:33:40;;;;;;;27.98;13.82;;;8.00;99.90;;;;;;5008583;28;20042;-37
2022/12/23 02:36:25;;;;;;;27.35;13.90;;;8.00;99.90;;;;;;4992272;28;20054;-36
2022/12/23 02:39:24;;;;;;;24.88;13.52;;;7.90;99.90;;;;;;4992125;28;20042;-36
2022/12/23 02:42:04;;;;;;;24.65;13.65;;;8.00;99.90;;;;;;5008178;28;20501;-36
2022/12/23 02:44:59;;;;;;;24.55;14.75;;;8.00;99.90;;;;;;5011087;28;20049;-36
2022/12/23 02:47:35;;;;;;;26.25;15.15;;;8.00;99.90;;;;;;5001068;28;20065;-36
2022/12/23 02:50:08;;;;;;;28.85;16.15;;;7.90;99.90;;;;;;4992260;28;20399;-36
2022/12/23 02:52:37;;;;;;;24.63;14.27;;;7.90;99.90;;;;;;4992003;28;20046;-35
2022/12/23 02:55:08;;;;;;;26.67;16.00;;;7.90;99.90;;;;;;4993039;28;20086;-36
2022/12/23 02:57:43;;;;;;;26.70;16.33;;;7.90;99.90;;;;;;4975614;28;20070;-35
2022/12/23 03:00:09;;;;;;;29.70;17.67;;;7.90;99.90;;;;;;4992593;28;20573;-36
2022/12/23 03:02:38;;;;;;;33.05;18.52;;;7.90;99.90;;;;;;4992034;28;20038;-36
2022/12/23 03:05:05;;;;;;;34.38;19.02;;;7.90;99.90;;;;;;4991686;28;20129;-36
2022/12/23 03:07:37;;;;;;;29.48;17.45;;;7.90;99.90;;;;;;4993055;28;20531;-36
2022/12/23 03:10:28;;;;;;;35.45;19.00;;;7.90;99.90;;;;;;4991654;28;20041;-36
2022/12/23 03:13:08;;;;;;;38.72;21.17;;;7.90;99.90;;;;;;4992518;28;20042;-36
2022/12/23 03:15:58;;;;;;;43.30;23.00;;;7.90;99.90;;;;;;5011242;28;20038;-36
2022/12/23 03:18:55;;;;;;;38.17;21.52;;;7.90;99.90;;;;;;5011443;28;20450;-35
2022/12/23 03:21:33;;;;;;;47.45;23.10;;;7.80;99.90;;;;;;5011342;28;20048;-36
2022/12/23 03:24:31;;;;;;;40.40;21.95;;;7.80;99.90;;;;;;5011056;28;20039;-35
2022/12/23 03:27:06;;;;;;;42.78;22.45;;;7.80;99.90;;;;;;5011366;28;20045;-35
2022/12/23 03:29:44;;;;;;;43.55;21.85;;;7.80;99.90;;;;;;5010961;28;20045;-36
2022/12/23 03:32:13;;;;;;;38.92;21.33;;;7.80;99.90;;;;;;5011426;28;20048;-36
2022/12/23 03:34:44;;;;;;;41.30;22.15;;;7.80;99.90;;;;;;4994857;28;20507;-36
2022/12/23 03:37:13;;;;;;;42.25;22.40;;;7.70;99.90;;;;;;5011055;28;20038;-35
2022/12/23 03:39:51;;;;;;;43.70;22.45;;;7.70;99.90;;;;;;4994408;28;20034;-36
2022/12/23 03:42:29;;;;;;;37.20;21.08;;;7.70;99.90;;;;;;5010913;28;20117;-35
2022/12/23 03:44:59;;;;;;;42.25;22.08;;;7.70;99.90;;;;;;5027579;28;20041;-36
2022/12/23 03:47:37;;;;;;;48.08;22.80;;;7.70;99.90;;;;;;5011033;28;20042;-35
2022/12/23 03:50:14;;;;;;;45.55;22.63;;;7.70;99.90;;;;;;5011100;28;20034;-35
2022/12/23 03:52:48;;;;;;;40.85;21.27;;;7.70;99.90;;;;;;5011093;28;20038;-35
2022/12/23 03:55:22;;;;;;;42.35;21.63;;;7.70;99.90;;;;;;5012087;28;20072;-35
2022/12/23 03:57:59;;;;;;;46.72;20.45;;;7.70;99.90;;;;;;5010975;28;20415;-36
2022/12/23 04:00:29;;;;;;;50.17;22.63;;;7.60;99.90;;;;;;5011213;28;20095;-36
2022/12/23 04:03:09;;;;;;;42.38;20.85;;;7.60;99.90;;;;;;5010776;28;20038;-36
2022/12/23 04:05:48;;;;;;;46.90;22.75;;;7.60;99.90;;;;;;5010707;28;20058;-35
2022/12/23 04:08:21;;;;;;;49.58;24.35;;;7.60;99.90;;;;;;5011013;28;20061;-36
2022/12/23 04:10:48;;;;;;;64.93;24.75;;;7.60;99.90;;;;;;5013121;28;20395;-35
2022/12/23 04:13:13;;;;;;;52.50;23.48;;;7.60;99.90;;;;;;5014345;28;20045;-36
2022/12/23 04:15:41;;;;;;;49.17;23.25;;;7.60;99.90;;;;;;5014710;28;20038;-35
2022/12/23 04:18:08;;;;;;;66.10;26.20;;;7.60;99.90;;;;;;5014465;28;20046;-36
2022/12/23 04:20:33;;;;;;;53.92;23.23;;;7.60;99.90;;;;;;5014640;28;20269;-35
2022/12/23 04:22:59;;;;;;;51.55;22.25;;;7.60;99.90;;;;;;5014283;28;20538;-36
2022/12/23 04:25:25;;;;;;;60.35;24.63;;;7.60;99.90;;;;;;4997899;28;20042;-36
2022/12/23 04:27:51;;;;;;;49.03;20.80;;;7.60;99.90;;;;;;5014597;28;20034;-36
2022/12/23 04:30:17;;;;;;;69.38;24.88;;;7.60;99.90;;;;;;5014069;28;20523;-35
2022/12/23 04:32:43;;;;;;;50.85;21.70;;;7.60;99.90;;;;;;5014472;28;20495;-36
2022/12/23 04:35:10;;;;;;;54.13;23.00;;;7.60;99.90;;;;;;5014252;28;20038;-35
2022/12/23 04:37:35;;;;;;;51.22;21.75;;;7.60;99.90;;;;;;5014256;28;20133;-35
2022/12/23 04:40:01;;;;;;;51.13;21.88;;;7.60;99.90;;;;;;5014145;28;20104;-35
2022/12/23 04:42:27;;;;;;;64.38;23.02;;;7.60;99.90;;;;;;5015404;28;20100;-35
2022/12/23 04:44:53;;;;;;;62.10;22.40;;;7.60;99.90;;;;;;4997538;28;20487;-36
2022/12/23 04:47:19;;;;;;;65.82;22.27;;;7.60;99.90;;;;;;5013903;28;20076;-35
2022/12/23 04:49:44;;;;;;;53.47;20.92;;;7.60;99.90;;;;;;5013952;28;20096;-35
2022/12/23 04:52:10;;;;;;;57.13;22.52;;;7.60;99.90;;;;;;5013681;28;20408;-36
2022/12/23 04:54:36;;;;;;;70.45;25.40;;;7.60;99.90;;;;;;5014028;28;20044;-35
2022/12/23 04:57:02;;;;;;;66.18;23.08;;;7.60;99.90;;;;;;5013908;28;20128;-35
2022/12/23 04:59:27;;;;;;;74.22;24.23;;;7.60;99.90;;;;;;5013616;28;20543;-35
2022/12/23 05:01:53;;;;;;;64.05;23.60;;;7.60;99.90;;;;;;5013720;28;20037;-36
2022/12/23 05:04:19;;;;;;;92.57;27.27;;;7.60;99.90;;;;;;5013491;28;20081;-35
2022/12/23 05:06:44;;;;;;;63.58;24.17;;;7.50;99.90;;;;;;5013545;28;20073;-35
2022/12/23 05:09:10;;;;;;;71.47;24.40;;;7.50;99.90;;;;;;5013741;28;20455;-35
2022/12/23 05:11:36;;;;;;;106.40;27.30;;;7.50;99.90;;;;;;5013464;28;20164;-36
2022/12/23 05:14:02;;;;;;;69.95;24.75;;;7.50;99.90;;;;;;4997212;28;20081;-36
2022/12/23 05:16:27;;;;;;;157.90;32.97;;;7.50;99.90;;;;;;5013526;28;20038;-35
2022/12/23 05:18:53;;;;;;;54.08;22.25;;;7.50;99.90;;;;;;5013330;28;20564;-34
2022/12/23 05:21:19;;;;;;;62.22;23.60;;;7.50;99.90;;;;;;5012511;28;20133;-35
2022/12/23 05:23:45;;;;;;;58.28;23.13;;;7.40;99.90;;;;;;5013294;28;20037;-36
2022/12/23 05:26:10;;;;;;;84.72;26.65;;;7.40;99.90;;;;;;5013320;28;20386;-36
2022/12/23 05:28:36;;;;;;;55.38;21.63;;;7.40;99.90;;;;;;5013068;28;20076;-35
2022/12/23 05:31:05;;;;;;;58.15;21.60;;;7.40;99.90;;;;;;5013261;28;20126;-35
2022/12/23 05:33:31;;;;;;;57.05;20.95;;;7.30;99.90;;;;;;5013282;28;20041;-35
2022/12/23 05:35:57;;;;;;;59.95;20.98;;;7.30;99.90;;;;;;5013188;28;20042;-36
2022/12/23 05:38:23;;;;;;;50.78;20.33;;;7.30;99.90;;;;;;5029759;28;20091;-35
2022/12/23 05:40:49;;;;;;;45.67;19.23;;;7.30;99.90;;;;;;4996721;28;20069;-36
2022/12/23 05:43:15;;;;;;;60.00;19.70;;;7.30;99.90;;;;;;5013086;28;20041;-35
2022/12/23 05:45:41;;;;;;;62.70;19.65;;;7.30;99.90;;;;;;5012115;28;20048;-35
2022/12/23 05:48:06;;;;;;;85.90;23.35;;;7.30;99.90;;;;;;5012742;28;20029;-35
2022/12/23 05:50:33;;;;;;;94.45;22.70;;;7.30;99.90;;;;;;5012941;28;20125;-34
2022/12/23 05:52:58;;;;;;;91.43;22.10;;;7.30;99.90;;;;;;5012904;28;20449;-35
2022/12/23 05:55:25;;;;;;;61.08;18.80;;;7.30;99.90;;;;;;5012557;28;20084;-34
2022/12/23 05:57:52;;;;;;;77.30;21.05;;;7.30;99.90;;;;;;5012810;28;20469;-36
2022/12/23 06:00:18;;;;;;;145.70;24.75;;;7.30;99.90;;;;;;5012759;28;20038;-36
2022/12/23 06:02:44;;;;;;;287.88;31.75;;;7.30;99.90;;;;;;5012600;28;20479;-35
2022/12/23 06:05:11;;;;;;;61.42;19.75;;;7.30;99.90;;;;;;5012355;28;20037;-36
2022/12/23 06:07:37;;;;;;;91.97;21.23;;;7.30;99.90;;;;;;5012542;28;20399;-35
2022/12/23 06:10:07;;;;;;;122.45;24.10;;;7.30;99.90;;;;;;5012551;28;20045;-35
2022/12/23 06:12:34;;;;;;;92.10;22.15;;;7.30;99.90;;;;;;5012073;28;20117;-36
2022/12/23 06:14:59;;;;;;;109.80;22.88;;;7.30;99.90;;;;;;5012492;28;20391;-35
2022/12/23 06:17:25;;;;;;;223.63;27.33;;;7.30;99.90;;;;;;5012375;28;20040;-35
2022/12/23 06:19:51;;;;;;;97.07;20.73;;;7.30;99.90;;;;;;5012009;28;20446;-36
2022/12/23 06:22:16;;;;;;;154.23;24.30;;;7.20;99.90;;;;;;5011992;28;20037;-36
2022/12/23 06:24:43;;;;;;;145.70;24.83;;;7.20;99.90;;;;;;5011987;28;20049;-36
2022/12/23 06:27:09;;;;;;;86.93;19.52;;;7.20;99.90;;;;;;5012264;28;20361;-35
2022/12/23 06:29:35;;;;;;;124.03;23.27;;;7.20;99.90;;;;;;5012046;28;20539;-35
2022/12/23 06:32:01;;;;;;;132.85;23.48;;;7.20;99.90;;;;;;5027538;28;20042;-35
2022/12/23 06:34:27;;;;;;;70.93;20.65;;;7.20;99.90;;;;;;5010462;28;20038;-35
2022/12/23 06:36:52;;;;;;;160.00;25.10;;;7.30;99.90;;;;;;5010704;28;20116;-35
2022/12/23 06:39:19;;;;;;;119.00;22.33;;;7.20;99.90;;;;;;5027493;28;20038;-36
2022/12/23 06:41:45;;;;;;;134.48;25.38;;;7.20;99.90;;;;;;5011882;28;20053;-35
2022/12/23 06:44:11;;;;;;;96.13;21.20;;;7.20;99.90;;;;;;5010972;28;20041;-35
2022/12/23 06:46:36;;;;;;;222.00;28.23;;;7.20;99.90;;;;;;5011056;28;20099;-36
2022/12/23 06:49:02;;;;;;;81.97;22.30;;;7.20;99.90;;;;;;5011653;28;20041;-39
2022/12/23 06:51:28;;;;;;;79.55;20.60;;;7.30;99.90;;;;;;5011733;28;20038;-36
2022/12/23 06:53:54;;;;;;;92.80;22.00;;;7.20;99.90;;;;;;5011429;28;20038;-36
2022/12/23 06:56:20;;;;;;;55.53;19.85;;;7.30;99.90;;;;;;5011907;28;20050;-35
2022/12/23 06:58:45;;;;;;;232.52;30.38;;;7.30;99.90;;;;;;5011808;28;20395;-35
2022/12/23 07:01:11;;;;;;;98.20;22.55;;;7.30;99.90;;;;;;4995040;28;20100;-35
2022/12/23 07:03:37;;;;;;;59.53;20.92;;;7.30;99.90;;;;;;5011300;28;20048;-37
2022/12/23 07:06:03;;;;;;;56.28;19.67;;;7.30;99.90;;;;;;5011310;28;20042;-36
2022/12/23 07:08:29;;;;;;;241.85;31.02;;;7.30;99.90;;;;;;5011301;28;20124;-35
2022/12/23 07:10:58;;;;;;;190.75;26.80;;;7.30;99.90;;;;;;5011176;28;20100;-35
2022/12/23 07:13:24;;;;;;;163.52;25.17;;;7.30;99.90;;;;;;5011250;28;20044;-35
2022/12/23 07:15:50;;;;;;;181.40;24.15;;;7.30;99.90;;;;;;4994849;28;20045;-35
2022/12/23 07:18:16;;;;;;;90.20;21.42;;;7.20;99.90;;;;;;5011406;28;20124;-35
2022/12/23 07:20:42;;;;;;;144.98;23.85;;;7.20;99.90;;;;;;5011038;28;20586;-36
2022/12/23 07:23:07;;;;;;;246.82;30.70;;;7.20;99.90;;;;;;5011174;28;20034;-35
2022/12/23 07:25:33;;;;;;;108.90;21.73;;;7.20;99.90;;;;;;5010958;28;20042;-35
2022/12/23 07:27:59;;;;;;;163.50;25.83;;;7.20;99.90;;;;;;5011301;28;20037;-35
2022/12/23 07:30:25;;;;;;;381.80;41.10;;;7.20;99.90;;;;;;5011184;28;20117;-36
2022/12/23 07:32:52;;;;;;;80.05;21.10;;;7.20;99.90;;;;;;5011323;28;20060;-37
2022/12/23 07:35:18;;;;;;;218.95;28.83;;;7.20;99.90;;;;;;5011272;28;20034;-35
2022/12/23 07:37:44;;;;;;;241.50;28.05;;;7.20;99.90;;;;;;5009561;28;20049;-36
2022/12/23 07:40:11;;;;;;;288.08;32.95;;;7.20;99.90;;;;;;5009786;28;20530;-35
2022/12/23 07:42:37;;;;;;;120.88;22.27;;;7.20;99.90;;;;;;5010459;28;20042;-35
2022/12/23 07:45:03;;;;;;;72.68;21.63;;;7.20;99.90;;;;;;5011572;28;20403;-35
2022/12/23 07:47:29;;;;;;;146.88;34.38;;;7.20;99.90;;;;;;4997659;28;20049;-35
2022/12/23 07:49:55;;;;;;;174.05;28.10;;;7.20;99.90;;;;;;5014021;28;20483;-35
2022/12/23 07:52:21;;;;;;;143.38;27.70;;;7.20;99.90;;;;;;5015966;28;20042;-35
2022/12/23 07:54:47;;;;;;;242.27;30.80;;;7.20;99.90;;;;;;5014781;28;20040;-35
2022/12/23 07:57:12;;;;;;;155.60;26.67;;;7.20;99.90;;;;;;5015087;28;20045;-35
2022/12/23 07:59:38;;;;;;;83.63;22.00;;;7.20;99.90;;;;;;5014992;28;20081;-35
2022/12/23 08:02:04;;;;;;;164.10;24.58;;;7.20;99.90;;;;;;5014745;28;20100;-35
2022/12/23 08:04:30;;;;;;;76.93;17.48;;;7.20;99.90;;;;;;5014823;28;20042;-35
2022/12/23 08:06:55;;;;;;;69.05;18.45;;;7.20;99.90;;;;;;5014749;28;20557;-36
2022/12/23 08:09:21;;;;;;;56.17;16.52;;;7.20;99.90;;;;;;5014389;28;20042;-35
2022/12/23 08:11:47;;;;;;;57.85;17.60;;;7.20;99.90;;;;;;5014394;28;20046;-35
2022/12/23 08:14:12;;;;;;;94.25;22.73;;;7.20;99.90;;;;;;5014842;28;20037;-36
2022/12/23 08:16:38;;;;;;;181.77;29.38;;;7.10;99.90;;;;;;5014389;28;20073;-36
2022/12/23 08:19:04;;;;;;;62.35;22.45;;;7.10;99.90;;;;;;5014804;28;20084;-35
2022/12/23 08:21:29;;;;;;;55.20;20.83;;;7.10;99.90;;;;;;5014255;28;20573;-35
2022/12/23 08:23:55;;;;;;;68.40;23.02;;;7.10;99.90;;;;;;5014575;28;20038;-36
2022/12/23 08:26:23;;;;;;;65.60;24.10;;;7.10;99.90;;;;;;5014276;28;20495;-35
2022/12/23 08:28:52;;;;;;;47.08;22.00;;;7.10;99.90;;;;;;5014245;28;20052;-34
2022/12/23 08:31:44;;;;;;;51.17;21.40;;;7.20;99.90;;;;;;5014365;28;20184;-36
2022/12/23 08:34:10;;;;;;;176.27;26.23;;;7.20;99.90;;;;;;5011382;28;20488;-36
2022/12/23 08:36:36;;;;;;;175.77;24.58;;;7.20;99.90;;;;;;4997689;28;20077;-36
2022/12/23 08:39:06;;;;;;;168.38;25.13;;;7.20;99.90;;;;;;5014057;28;20491;-35
2022/12/23 08:41:35;;;;;;;69.97;17.63;;;7.30;99.90;;;;;;4997797;28;20057;-35
2022/12/23 08:44:01;;;;;;;65.95;16.65;;;7.20;99.90;;;;;;5013882;28;20538;-35
2022/12/23 08:46:27;;;;;;;68.30;16.40;;;7.30;99.90;;;;;;5013792;28;20176;-35
2022/12/23 08:48:53;;;;;;;47.63;15.63;;;7.30;99.90;;;;;;5014051;28;20136;-35
2022/12/23 08:51:20;;;;;;;80.90;18.38;;;7.30;99.90;;;;;;5013983;28;20091;-36
2022/12/23 08:53:46;;;;;;;59.78;18.17;;;7.30;99.90;;;;;;4985132;28;20038;-35
2022/12/23 08:56:17;;;;;;;159.00;25.35;;;7.30;99.90;;;;;;5013062;28;20053;-35
2022/12/23 08:58:45;;;;;;;54.25;16.75;;;7.30;99.90;;;;;;5013848;28;20495;-35
2022/12/23 09:01:13;;;;;;;135.80;20.35;;;7.40;99.90;;;;;;5015181;28;20124;-35
2022/12/23 09:03:39;;;;;;;58.55;16.55;;;7.40;99.90;;;;;;5013691;28;20041;-35
2022/12/23 09:06:07;;;;;;;73.45;18.40;;;7.40;99.90;;;;;;5013761;28;20088;-36
2022/12/23 09:08:34;;;;;;;117.63;24.70;;;7.40;99.90;;;;;;5013531;28;20049;-35
2022/12/23 09:11:00;;;;;;;57.15;19.20;;;7.50;99.90;;;;;;5013664;28;20042;-35
2022/12/23 09:13:26;;;;;;;67.30;22.35;;;7.50;99.90;;;;;;5013590;28;20084;-36
2022/12/23 09:15:52;;;;;;;159.50;27.67;;;7.50;99.90;;;;;;5013510;28;20048;-36
2022/12/23 09:18:18;;;;;;;45.95;18.15;;;7.50;99.90;;;;;;5013367;28;20071;-35
2022/12/23 09:20:44;;;;;;;49.67;16.92;;;7.50;99.90;;;;;;5013053;28;20041;-35
2022/12/23 09:23:09;;;;;;;44.47;16.73;;;7.60;99.90;;;;;;5013400;28;20100;-35
2022/12/23 09:25:36;;;;;;;96.95;21.88;;;7.60;99.90;;;;;;5012941;28;20525;-35
2022/12/23 09:28:02;;;;;;;47.70;17.38;;;7.60;99.90;;;;;;5013365;28;20045;-36
2022/12/23 09:30:29;;;;;;;42.83;15.95;;;7.70;99.90;;;;;;5013272;28;20097;-37
2022/12/23 09:32:54;;;;;;;40.63;15.85;;;7.70;99.90;;;;;;5014148;28;20125;-36
2022/12/23 09:35:20;;;;;;;37.40;15.05;;;7.70;99.90;;;;;;5013019;28;20128;-37
2022/12/23 09:37:46;;;;;;;36.75;14.85;;;7.80;99.90;;;;;;5013164;28;20038;-36
2022/12/23 09:40:14;;;;;;;56.55;17.08;;;7.80;99.90;;;;;;5013040;28;20041;-37
2022/12/23 09:42:55;;;;;;;37.58;15.73;;;7.80;99.90;;;;;;5012991;28;20053;-36
2022/12/23 09:45:35;;;;;;;41.20;15.18;;;7.80;99.90;;;;;;5013030;28;20488;-35
2022/12/23 09:48:13;;;;;;;54.17;16.80;;;7.80;99.90;;;;;;5015814;28;20038;-36
2022/12/23 09:50:41;;;;;;;41.88;15.60;;;7.80;99.90;;;;;;5016498;28;20034;-36
2022/12/23 09:53:12;;;;;;;33.78;15.27;;;7.70;99.90;;;;;;5032072;28;20096;-35
2022/12/23 09:55:57;;;;;;;47.75;16.38;;;7.80;99.90;;;;;;4998644;28;20140;-37
2022/12/23 09:58:26;;;;;;;30.00;13.85;;;7.70;99.90;;;;;;5013851;28;20052;-36
2022/12/23 10:01:10;;;;;;;37.10;14.55;;;7.80;99.90;;;;;;5013884;28;20073;-36
2022/12/23 10:03:52;;;;;;;38.80;13.75;;;7.70;99.90;;;;;;5013909;28;20046;-37
2022/12/23 10:06:24;;;;;;;38.00;14.35;;;7.70;99.90;;;;;;5005545;28;20038;-37
2022/12/23 10:08:55;;;;;;;30.63;13.65;;;7.70;99.90;;;;;;5009968;28;20069;-37
2022/12/23 10:11:26;;;;;;;57.97;16.58;;;7.70;99.90;;;;;;5004448;28;20037;-38
2022/12/23 10:14:19;;;;;;;49.65;17.40;;;7.70;99.90;;;;;;5012537;28;20048;-37
2022/12/23 10:16:51;;;;;;;41.17;15.77;;;7.70;99.90;;;;;;5022015;28;20443;-37
2022/12/23 10:19:25;;;;;;;48.40;15.05;;;7.70;99.90;;;;;;5013119;28;20053;-38
2022/12/23 10:22:00;;;;;;;35.90;14.40;;;7.70;99.90;;;;;;5009330;28;20077;-37
2022/12/23 10:24:47;;;;;;;70.22;18.13;;;7.70;99.90;;;;;;5005515;28;20042;-38
2022/12/23 10:27:37;;;;;;;75.07;18.13;;;7.70;99.90;;;;;;5012254;28;20050;-37
2022/12/23 10:30:21;;;;;;;33.05;13.73;;;7.70;99.90;;;;;;5011783;28;20041;-37
2022/12/23 10:33:06;;;;;;;44.63;14.73;;;7.70;99.90;;;;;;5011652;28;20042;-38
2022/12/23 10:35:41;;;;;;;46.53;14.50;;;7.80;99.90;;;;;;5021422;28;20511;-38
2022/12/23 10:38:09;;;;;;;68.45;17.73;;;7.80;99.90;;;;;;5008477;28;20042;-38
2022/12/23 10:40:47;;;;;;;38.65;14.98;;;7.80;99.90;;;;;;5008055;28;20041;-38
2022/12/23 10:43:19;;;;;;;46.95;15.10;;;7.90;99.90;;;;;;5011439;28;20050;-36
2022/12/23 10:46:00;;;;;;;102.00;19.67;;;8.00;99.90;;;;;;5011454;28;20057;-36
2022/12/23 10:48:47;;;;;;;79.65;19.30;;;8.00;99.90;;;;;;5014091;28;20069;-36
2022/12/23 10:51:22;;;;;;;96.40;20.17;;;8.00;99.90;;;;;;5020641;28;20042;-36
2022/12/23 10:54:08;;;;;;;80.40;18.67;;;8.00;99.90;;;;;;5012686;28;20046;-37
2022/12/23 10:56:34;;;;;;;39.15;13.98;;;8.00;99.90;;;;;;5022156;28;20034;-37
2022/12/23 10:59:01;;;;;;;34.00;14.85;;;8.00;99.90;;;;;;5010612;28;20133;-37
2022/12/23 11:01:29;;;;;;;34.35;13.82;;;8.00;99.90;;;;;;5003064;28;20046;-37
2022/12/23 11:03:55;;;;;;;30.77;14.27;;;8.00;99.90;;;;;;5012080;28;20042;-44
2022/12/23 11:06:22;;;;;;;28.50;13.68;;;8.00;99.90;;;;;;5008903;28;20040;-36
2022/12/23 11:08:48;;;;;;;31.35;13.57;;;8.00;99.90;;;;;;5004733;28;20045;-36
2022/12/23 11:11:14;;;;;;;26.65;13.63;;;8.00;99.90;;;;;;5011239;28;20037;-36
2022/12/23 11:13:44;;;;;;;27.95;13.65;;;8.00;99.90;;;;;;4991552;28;20034;-36
2022/12/23 11:16:27;;;;;;;32.35;14.13;;;8.00;99.90;;;;;;5009725;28;20046;-36
2022/12/23 11:18:56;;;;;;;31.80;13.70;;;8.10;99.90;;;;;;5005630;28;20396;-37
2022/12/23 11:21:22;;;;;;;29.00;14.48;;;8.10;99.90;;;;;;5000331;28;20037;-36
2022/12/23 11:24:16;;;;;;;45.13;17.50;;;8.10;99.90;;;;;;4997659;28;20415;-36
2022/12/23 11:26:48;;;;;;;30.25;14.60;;;8.10;99.90;;;;;;5000382;28;20073;-36
2022/12/23 11:29:26;;;;;;;46.47;18.13;;;8.10;99.90;;;;;;5010838;28;20117;-37
2022/12/23 11:31:52;;;;;;;39.03;15.70;;;8.10;99.90;;;;;;5002598;28;20041;-37
2022/12/23 11:34:24;;;;;;;32.75;15.10;;;8.10;99.90;;;;;;5009268;28;20030;-37
2022/12/23 11:37:00;;;;;;;56.90;19.50;;;8.10;99.90;;;;;;5007605;28;20569;-37
2022/12/23 11:39:36;;;;;;;34.03;15.98;;;8.10;99.90;;;;;;5002312;28;20045;-37
2022/12/23 11:42:14;;;;;;;34.35;16.13;;;8.20;99.90;;;;;;5011427;28;20073;-38
2022/12/23 11:44:48;;;;;;;40.50;17.58;;;8.20;99.90;;;;;;5010597;28;20518;-37
2022/12/23 11:47:22;;;;;;;32.63;15.52;;;8.20;99.90;;;;;;5002916;28;20096;-37
2022/12/23 11:49:56;;;;;;;35.33;17.08;;;8.20;99.90;;;;;;5016184;28;20052;-38
2022/12/23 11:52:31;;;;;;;34.17;17.38;;;8.20;99.90;;;;;;5010436;28;20045;-37
2022/12/23 11:55:00;;;;;;;41.40;17.67;;;8.20;99.90;;;;;;5012153;28;20082;-37
2022/12/23 11:57:47;;;;;;;34.65;16.27;;;8.20;99.90;;;;;;4995730;28;20183;-38
2022/12/23 12:00:22;;;;;;;36.50;16.50;;;8.20;99.90;;;;;;5010699;28;20578;-38
2022/12/23 12:02:54;;;;;;;30.65;14.23;;;8.20;99.90;;;;;;5011825;28;20575;-42
2022/12/23 12:05:37;;;;;;;32.13;15.13;;;8.20;99.90;;;;;;5007668;28;20066;-37
2022/12/23 12:08:09;;;;;;;36.38;15.77;;;8.30;99.90;;;;;;4996309;28;20066;-37
2022/12/23 12:10:38;;;;;;;32.05;15.38;;;8.20;99.90;;;;;;5011632;28;20030;-37
2022/12/23 12:13:26;;;;;;;39.28;17.02;;;8.20;99.90;;;;;;5008282;28;20224;-38
2022/12/23 12:16:11;;;;;;;40.40;16.67;;;8.20;99.90;;;;;;5029078;28;20072;-37
2022/12/23 12:18:40;;;;;;;35.00;16.52;;;8.20;99.90;;;;;;5011860;28;20068;-37
2022/12/23 12:21:13;;;;;;;38.13;17.95;;;8.20;99.90;;;;;;5005361;28;20322;-38
2022/12/23 12:23:45;;;;;;;45.65;18.83;;;8.20;99.90;;;;;;5000878;28;20074;-37
2022/12/23 12:26:27;;;;;;;38.50;16.73;;;8.10;99.90;;;;;;5004523;28;20038;-37
2022/12/23 12:29:06;;;;;;;41.63;17.35;;;8.20;99.90;;;;;;5005065;28;20072;-38
2022/12/23 12:31:53;;;;;;;33.65;15.82;;;8.10;99.90;;;;;;5003178;28;20042;-38
2022/12/23 12:34:37;;;;;;;47.95;19.25;;;8.20;99.90;;;;;;4991236;28;20097;-38
2022/12/23 12:37:22;;;;;;;43.83;17.75;;;8.10;99.90;;;;;;5027652;28;20496;-36
2022/12/23 12:39:57;;;;;;;32.78;15.10;;;8.20;99.90;;;;;;5009607;28;20046;-36
2022/12/23 12:42:39;;;;;;;37.20;16.35;;;8.20;99.90;;;;;;5023018;28;20077;-37
2022/12/23 12:45:22;;;;;;;37.95;15.80;;;8.20;99.90;;;;;;5005131;28;20045;-37
2022/12/23 12:48:42;;;;;;;34.00;15.73;;;8.20;99.90;;;;;;5009070;28;20065;-37
2022/12/23 12:51:16;;;;;;;37.55;14.48;;;8.20;99.90;;;;;;4997160;28;20503;-36
2022/12/23 12:54:11;;;;;;;33.55;15.07;;;8.20;99.90;;;;;;5005989;28;20558;-37
2022/12/23 12:56:43;;;;;;;35.55;14.60;;;8.20;99.90;;;;;;4998782;28;20049;-37
2022/12/23 12:59:19;;;;;;;35.72;13.80;;;8.20;99.90;;;;;;5028027;28;20488;-36
2022/12/23 13:01:58;;;;;;;35.30;14.73;;;8.20;99.90;;;;;;5009257;28;20046;-36
2022/12/23 13:04:49;;;;;;;31.75;14.23;;;8.20;99.90;;;;;;5028039;28;20080;-37
2022/12/23 13:07:38;;;;;;;38.65;15.60;;;8.10;99.90;;;;;;5016641;28;20042;-38
2022/12/23 13:10:12;;;;;;;33.28;14.35;;;8.10;99.90;;;;;;5010320;28;20335;-37
2022/12/23 13:12:38;;;;;;;34.33;14.48;;;8.10;99.90;;;;;;5027357;28;20119;-37
2022/12/23 13:15:07;;;;;;;36.38;15.30;;;8.10;99.90;;;;;;5010962;28;20069;-37
2022/12/23 13:17:41;;;;;;;35.00;14.10;;;8.10;99.90;;;;;;4980629;28;20045;-37